createdAt,value
2022-12-06T09:44:40.304Z,12.18
2022-12-06T09:47:25.101Z,12.43
2022-12-06T09:50:25.556Z,11.93
2022-12-06T09:53:01.653Z,11.15
2022-12-06T09:55:46.413Z,11.20
2022-12-06T09:58:28.871Z,10.40
2022-12-06T10:01:00.860Z,9.93
2022-12-06T10:03:51.552Z,9.60
2022-12-06T10:06:22.986Z,9.73
2022-12-06T10:09:16.758Z,9.27
2022-12-06T10:12:07.730Z,10.82
2022-12-06T10:14:55.778Z,9.50
2022-12-06T10:17:52.494Z,8.38
2022-12-06T10:20:37.959Z,8.32
2022-12-06T10:23:17.910Z,9.77
2022-12-06T10:26:13.976Z,11.70
2022-12-06T10:29:07.192Z,10.75
2022-12-06T10:32:09.187Z,11.50
2022-12-06T10:34:47.329Z,11.93
2022-12-06T10:37:21.427Z,10.43
2022-12-06T10:40:03.047Z,10.65
2022-12-06T10:42:39.860Z,9.95
2022-12-06T10:45:46.311Z,10.40
2022-12-06T10:48:24.149Z,10.25
2022-12-06T10:50:59.188Z,10.50
2022-12-06T10:53:31.733Z,10.70
2022-12-06T10:56:04.176Z,10.85
2022-12-06T10:58:58.142Z,10.32
2022-12-06T11:01:38.480Z,10.70
2022-12-06T11:04:12.746Z,11.75
2022-12-06T11:06:50.115Z,11.10
2022-12-06T11:09:36.597Z,10.45
2022-12-06T11:12:20.258Z,11.38
2022-12-06T11:14:52.704Z,11.18
2022-12-06T11:17:27.493Z,10.35
2022-12-06T11:20:03.945Z,9.95
2022-12-06T11:23:07.110Z,9.60
2022-12-06T11:25:48.675Z,8.93
2022-12-06T11:28:32.799Z,9.27
2022-12-06T11:31:00.025Z,8.98
2022-12-06T11:33:32.567Z,10.77
2022-12-06T11:36:06.281Z,10.52
2022-12-06T11:38:36.545Z,10.38
2022-12-06T11:41:08.432Z,9.80
2022-12-06T11:43:36.137Z,8.52
2022-12-06T11:46:05.658Z,8.35
2022-12-06T11:48:35.518Z,8.73
2022-12-06T11:51:03.035Z,7.95
2022-12-06T11:53:51.303Z,8.57
2022-12-06T11:56:30.174Z,8.43
2022-12-06T11:59:24.605Z,7.72
2022-12-06T12:01:54.318Z,7.43
2022-12-06T12:04:39.975Z,6.85
2022-12-06T12:07:18.297Z,6.90
2022-12-06T12:09:59.373Z,8.95
2022-12-06T12:12:55.393Z,8.60
2022-12-06T12:15:23.036Z,7.57
2022-12-06T12:17:53.577Z,8.88
2022-12-06T12:20:44.558Z,8.68
2022-12-06T12:23:28.394Z,8.90
2022-12-06T12:26:15.531Z,9.38
2022-12-06T12:28:44.492Z,9.30
2022-12-06T12:31:21.609Z,9.80
2022-12-06T12:33:49.637Z,8.90
2022-12-06T12:36:26.815Z,8.98
2022-12-06T12:39:00.887Z,8.98
2022-12-06T12:41:39.514Z,7.93
2022-12-06T12:44:39.756Z,7.45
2022-12-06T12:47:20.372Z,8.05
2022-12-06T12:50:23.917Z,8.02
2022-12-06T12:52:51.738Z,7.35
2022-12-06T12:55:21.084Z,7.57
2022-12-06T12:57:51.478Z,6.75
2022-12-06T13:00:41.937Z,8.00
2022-12-06T13:03:42.952Z,7.43
2022-12-06T13:06:03.967Z,7.22
2022-12-06T13:08:34.266Z,8.05
2022-12-06T13:11:03.142Z,7.35
2022-12-06T13:13:40.643Z,7.82
2022-12-06T13:16:14.546Z,7.65
2022-12-06T13:18:51.783Z,7.85
2022-12-06T13:21:32.809Z,8.52
2022-12-06T13:24:11.795Z,8.35
2022-12-06T13:26:49.330Z,8.38
2022-12-06T13:29:23.375Z,8.60
2022-12-06T13:31:53.536Z,9.38
2022-12-06T13:34:33.368Z,10.07
2022-12-06T13:37:03.374Z,10.43
2022-12-06T13:39:33.163Z,11.45
2022-12-06T13:42:20.173Z,11.25
2022-12-06T13:45:00.550Z,11.77
2022-12-06T13:47:27.401Z,10.70
2022-12-06T13:49:56.904Z,10.93
2022-12-06T13:52:42.412Z,10.57
2022-12-06T13:55:24.360Z,10.07
2022-12-06T13:57:59.830Z,11.85
2022-12-06T14:00:29.573Z,11.32
2022-12-06T14:03:04.195Z,11.43
2022-12-06T14:06:01.048Z,11.90
2022-12-06T14:08:35.348Z,11.00
2022-12-06T14:11:25.081Z,9.63
2022-12-06T14:13:59.894Z,10.35
2022-12-06T14:16:52.692Z,10.65
2022-12-06T14:19:29.568Z,11.18
2022-12-06T14:22:14.099Z,10.93
2022-12-06T14:24:43.651Z,9.30
2022-12-06T14:27:17.363Z,11.13
2022-12-06T14:29:58.166Z,10.27
2022-12-06T14:32:37.225Z,10.90
2022-12-06T14:35:17.280Z,10.30
2022-12-06T14:37:53.992Z,12.82
2022-12-06T14:40:45.067Z,10.57
2022-12-06T14:43:16.923Z,12.13
2022-12-06T14:45:45.306Z,10.93
2022-12-06T14:48:12.956Z,12.07
2022-12-06T14:50:51.451Z,11.05
2022-12-06T14:53:33.191Z,10.77
2022-12-06T14:56:20.714Z,10.48
2022-12-06T15:01:21.251Z,9.23
2022-12-06T15:04:07.264Z,7.82
2022-12-06T15:06:36.210Z,8.35
2022-12-06T15:09:02.807Z,7.97
2022-12-06T15:11:47.956Z,8.23
2022-12-06T15:14:49.246Z,7.47
2022-12-06T15:17:21.750Z,9.40
2022-12-06T15:19:50.939Z,9.10
2022-12-06T15:22:24.795Z,8.88
2022-12-06T15:24:55.233Z,7.97
2022-12-06T15:27:23.310Z,8.48
2022-12-06T15:29:50.475Z,8.98
2022-12-06T15:32:19.669Z,8.63
2022-12-06T15:34:46.459Z,9.73
2022-12-06T15:37:38.085Z,9.15
2022-12-06T15:40:02.153Z,11.25
2022-12-06T15:42:29.294Z,9.45
2022-12-06T15:44:55.920Z,10.25
2022-12-06T15:47:22.556Z,10.80
2022-12-06T15:49:51.771Z,12.40
2022-12-06T15:52:23.458Z,12.00
2022-12-06T15:54:50.519Z,10.60
2022-12-06T15:57:17.318Z,19.30
2022-12-06T15:59:44.098Z,14.90
2022-12-06T16:02:16.279Z,10.98
2022-12-06T16:04:44.118Z,12.07
2022-12-06T16:07:11.890Z,12.85
2022-12-06T16:09:38.823Z,11.70
2022-12-06T16:12:05.826Z,17.48
2022-12-06T16:14:32.772Z,12.38
2022-12-06T16:16:59.419Z,12.88
2022-12-06T16:19:46.097Z,13.15
2022-12-06T16:22:12.751Z,14.73
2022-12-06T16:24:39.423Z,14.80
2022-12-06T16:27:06.084Z,15.98
2022-12-06T16:29:33.335Z,14.80
2022-12-06T16:32:00.059Z,14.27
